sensor_id;sensor_type;location;lat;lon;timestamp;P1;durP1;ratioP1;P2;durP2;ratioP2
66175;SDS011;52977;44.816;20.538;2023-07-16T00:02:18;6.75;;;3.95;;
66175;SDS011;52977;44.816;20.538;2023-07-16T00:04:44;8.68;;;4.22;;
66175;SDS011;52977;44.816;20.538;2023-07-16T00:07:09;7.25;;;4.28;;
66175;SDS011;52977;44.816;20.538;2023-07-16T00:09:36;8.43;;;4.57;;
66175;SDS011;52977;44.816;20.538;2023-07-16T00:12:02;7.72;;;4.32;;
66175;SDS011;52977;44.816;20.538;2023-07-16T00:14:29;8.07;;;4.22;;
66175;SDS011;52977;44.816;20.538;2023-07-16T00:16:55;7.60;;;4.18;;
66175;SDS011;52977;44.816;20.538;2023-07-16T00:19:21;6.53;;;4.18;;
66175;SDS011;52977;44.816;20.538;2023-07-16T00:21:47;8.95;;;4.50;;
66175;SDS011;52977;44.816;20.538;2023-07-16T00:24:13;8.98;;;4.30;;
66175;SDS011;52977;44.816;20.538;2023-07-16T00:26:39;8.82;;;4.70;;
66175;SDS011;52977;44.816;20.538;2023-07-16T00:29:04;7.53;;;4.22;;
66175;SDS011;52977;44.816;20.538;2023-07-16T00:31:31;7.85;;;4.78;;
66175;SDS011;52977;44.816;20.538;2023-07-16T00:33:57;8.02;;;4.35;;
66175;SDS011;52977;44.816;20.538;2023-07-16T00:36:23;10.48;;;4.47;;
66175;SDS011;52977;44.816;20.538;2023-07-16T00:38:49;7.60;;;4.75;;
66175;SDS011;52977;44.816;20.538;2023-07-16T00:41:16;10.45;;;5.30;;
66175;SDS011;52977;44.816;20.538;2023-07-16T00:43:42;10.57;;;5.07;;
66175;SDS011;52977;44.816;20.538;2023-07-16T00:46:08;9.63;;;5.32;;
66175;SDS011;52977;44.816;20.538;2023-07-16T00:48:36;9.50;;;5.38;;
66175;SDS011;52977;44.816;20.538;2023-07-16T00:51:02;8.77;;;5.18;;
66175;SDS011;52977;44.816;20.538;2023-07-16T00:53:30;9.65;;;5.78;;
66175;SDS011;52977;44.816;20.538;2023-07-16T00:55:56;11.27;;;6.20;;
66175;SDS011;52977;44.816;20.538;2023-07-16T00:58:23;14.63;;;5.72;;
66175;SDS011;52977;44.816;20.538;2023-07-16T01:00:49;10.00;;;5.30;;
66175;SDS011;52977;44.816;20.538;2023-07-16T01:03:15;9.75;;;5.40;;
66175;SDS011;52977;44.816;20.538;2023-07-16T01:08:39;10.43;;;5.32;;
66175;SDS011;52977;44.816;20.538;2023-07-16T01:11:09;11.25;;;5.75;;
66175;SDS011;52977;44.816;20.538;2023-07-16T01:13:35;8.68;;;5.28;;
66175;SDS011;52977;44.816;20.538;2023-07-16T01:16:02;10.35;;;5.53;;
66175;SDS011;52977;44.816;20.538;2023-07-16T01:18:28;8.02;;;4.80;;
66175;SDS011;52977;44.816;20.538;2023-07-16T01:20:55;9.85;;;5.38;;
66175;SDS011;52977;44.816;20.538;2023-07-16T01:26:08;8.23;;;4.80;;
66175;SDS011;52977;44.816;20.538;2023-07-16T01:28:47;10.80;;;4.90;;
66175;SDS011;52977;44.816;20.538;2023-07-16T01:31:22;8.27;;;4.88;;
66175;SDS011;52977;44.816;20.538;2023-07-16T01:33:49;12.38;;;5.38;;
66175;SDS011;52977;44.816;20.538;2023-07-16T01:36:17;7.82;;;4.65;;
66175;SDS011;52977;44.816;20.538;2023-07-16T01:38:44;9.75;;;4.75;;
66175;SDS011;52977;44.816;20.538;2023-07-16T01:41:11;9.00;;;4.50;;
66175;SDS011;52977;44.816;20.538;2023-07-16T01:43:37;7.68;;;4.60;;
66175;SDS011;52977;44.816;20.538;2023-07-16T01:46:04;7.50;;;4.68;;
66175;SDS011;52977;44.816;20.538;2023-07-16T01:48:34;8.45;;;4.20;;
66175;SDS011;52977;44.816;20.538;2023-07-16T01:51:01;8.35;;;4.88;;
66175;SDS011;52977;44.816;20.538;2023-07-16T01:53:27;7.97;;;4.50;;
66175;SDS011;52977;44.816;20.538;2023-07-16T01:55:53;8.00;;;4.82;;
66175;SDS011;52977;44.816;20.538;2023-07-16T01:58:19;8.00;;;4.63;;
66175;SDS011;52977;44.816;20.538;2023-07-16T02:06:18;8.35;;;4.63;;
66175;SDS011;52977;44.816;20.538;2023-07-16T02:08:44;7.72;;;4.35;;
66175;SDS011;52977;44.816;20.538;2023-07-16T02:11:09;8.57;;;4.13;;
66175;SDS011;52977;44.816;20.538;2023-07-16T02:13:35;7.97;;;4.75;;
66175;SDS011;52977;44.816;20.538;2023-07-16T02:16:01;6.95;;;4.10;;
66175;SDS011;52977;44.816;20.538;2023-07-16T02:18:26;8.23;;;4.55;;
66175;SDS011;52977;44.816;20.538;2023-07-16T02:20:52;9.15;;;4.75;;
66175;SDS011;52977;44.816;20.538;2023-07-16T02:23:18;9.13;;;4.65;;
66175;SDS011;52977;44.816;20.538;2023-07-16T02:25:44;8.82;;;4.55;;
66175;SDS011;52977;44.816;20.538;2023-07-16T02:28:09;9.77;;;4.68;;
66175;SDS011;52977;44.816;20.538;2023-07-16T02:30:35;8.30;;;4.32;;
66175;SDS011;52977;44.816;20.538;2023-07-16T02:33:01;8.10;;;4.75;;
66175;SDS011;52977;44.816;20.538;2023-07-16T02:35:27;9.88;;;4.53;;
66175;SDS011;52977;44.816;20.538;2023-07-16T02:37:54;10.35;;;4.70;;
66175;SDS011;52977;44.816;20.538;2023-07-16T02:40:20;7.97;;;4.60;;
66175;SDS011;52977;44.816;20.538;2023-07-16T02:42:46;9.02;;;4.90;;
66175;SDS011;52977;44.816;20.538;2023-07-16T02:45:12;9.00;;;4.70;;
66175;SDS011;52977;44.816;20.538;2023-07-16T02:47:38;7.22;;;4.65;;
66175;SDS011;52977;44.816;20.538;2023-07-16T02:50:04;9.52;;;4.90;;
66175;SDS011;52977;44.816;20.538;2023-07-16T02:52:31;9.60;;;4.93;;
66175;SDS011;52977;44.816;20.538;2023-07-16T02:54:57;8.80;;;4.40;;
66175;SDS011;52977;44.816;20.538;2023-07-16T02:57:23;9.05;;;5.03;;
66175;SDS011;52977;44.816;20.538;2023-07-16T02:59:48;8.23;;;4.47;;
66175;SDS011;52977;44.816;20.538;2023-07-16T03:02:14;7.93;;;4.55;;
66175;SDS011;52977;44.816;20.538;2023-07-16T03:04:39;8.10;;;4.60;;
66175;SDS011;52977;44.816;20.538;2023-07-16T03:07:06;7.85;;;4.40;;
66175;SDS011;52977;44.816;20.538;2023-07-16T03:09:32;8.80;;;4.60;;
66175;SDS011;52977;44.816;20.538;2023-07-16T03:11:58;8.32;;;4.68;;
66175;SDS011;52977;44.816;20.538;2023-07-16T03:14:24;10.18;;;4.40;;
66175;SDS011;52977;44.816;20.538;2023-07-16T03:16:50;9.07;;;4.68;;
66175;SDS011;52977;44.816;20.538;2023-07-16T03:19:16;9.50;;;4.50;;
66175;SDS011;52977;44.816;20.538;2023-07-16T03:21:43;9.98;;;4.63;;
66175;SDS011;52977;44.816;20.538;2023-07-16T03:24:09;8.05;;;4.55;;
66175;SDS011;52977;44.816;20.538;2023-07-16T03:26:35;7.05;;;4.05;;
66175;SDS011;52977;44.816;20.538;2023-07-16T03:29:01;10.07;;;4.30;;
66175;SDS011;52977;44.816;20.538;2023-07-16T03:31:27;7.25;;;4.15;;
66175;SDS011;52977;44.816;20.538;2023-07-16T03:33:55;6.85;;;4.32;;
66175;SDS011;52977;44.816;20.538;2023-07-16T03:36:23;7.18;;;4.70;;
66175;SDS011;52977;44.816;20.538;2023-07-16T03:38:49;7.85;;;4.32;;
66175;SDS011;52977;44.816;20.538;2023-07-16T03:41:16;11.95;;;4.70;;
66175;SDS011;52977;44.816;20.538;2023-07-16T03:43:43;6.53;;;4.20;;
66175;SDS011;52977;44.816;20.538;2023-07-16T03:46:16;10.40;;;4.18;;
66175;SDS011;52977;44.816;20.538;2023-07-16T03:48:41;7.22;;;3.80;;
66175;SDS011;52977;44.816;20.538;2023-07-16T03:51:08;7.47;;;4.28;;
66175;SDS011;52977;44.816;20.538;2023-07-16T03:53:33;7.43;;;3.95;;
66175;SDS011;52977;44.816;20.538;2023-07-16T03:55:59;7.18;;;4.07;;
66175;SDS011;52977;44.816;20.538;2023-07-16T03:58:24;6.65;;;4.20;;
66175;SDS011;52977;44.816;20.538;2023-07-16T04:00:53;7.07;;;4.28;;
66175;SDS011;52977;44.816;20.538;2023-07-16T04:03:20;7.75;;;3.83;;
66175;SDS011;52977;44.816;20.538;2023-07-16T04:05:46;9.13;;;4.63;;
66175;SDS011;52977;44.816;20.538;2023-07-16T04:08:12;7.20;;;3.92;;
66175;SDS011;52977;44.816;20.538;2023-07-16T04:10:38;7.35;;;4.03;;
66175;SDS011;52977;44.816;20.538;2023-07-16T04:13:04;6.72;;;4.00;;
66175;SDS011;52977;44.816;20.538;2023-07-16T04:15:30;7.47;;;4.05;;
66175;SDS011;52977;44.816;20.538;2023-07-16T04:17:56;8.07;;;4.13;;
66175;SDS011;52977;44.816;20.538;2023-07-16T04:20:22;7.50;;;4.05;;
66175;SDS011;52977;44.816;20.538;2023-07-16T04:22:48;8.45;;;4.57;;
66175;SDS011;52977;44.816;20.538;2023-07-16T04:25:14;7.75;;;4.45;;
66175;SDS011;52977;44.816;20.538;2023-07-16T04:27:41;7.78;;;4.03;;
66175;SDS011;52977;44.816;20.538;2023-07-16T04:30:09;5.50;;;3.90;;
66175;SDS011;52977;44.816;20.538;2023-07-16T04:32:36;7.38;;;3.95;;
66175;SDS011;52977;44.816;20.538;2023-07-16T04:35:02;7.60;;;4.30;;
66175;SDS011;52977;44.816;20.538;2023-07-16T04:37:28;6.50;;;3.97;;
66175;SDS011;52977;44.816;20.538;2023-07-16T04:39:55;5.78;;;3.80;;
66175;SDS011;52977;44.816;20.538;2023-07-16T04:42:21;6.65;;;4.00;;
66175;SDS011;52977;44.816;20.538;2023-07-16T04:44:47;7.43;;;4.32;;
66175;SDS011;52977;44.816;20.538;2023-07-16T04:47:13;6.45;;;4.00;;
66175;SDS011;52977;44.816;20.538;2023-07-16T04:49:39;6.57;;;4.25;;
66175;SDS011;52977;44.816;20.538;2023-07-16T04:52:05;6.57;;;3.88;;
66175;SDS011;52977;44.816;20.538;2023-07-16T04:54:35;6.93;;;4.05;;
66175;SDS011;52977;44.816;20.538;2023-07-16T04:57:03;6.22;;;3.92;;
66175;SDS011;52977;44.816;20.538;2023-07-16T04:59:30;7.65;;;4.40;;
66175;SDS011;52977;44.816;20.538;2023-07-16T05:01:56;8.40;;;4.70;;
66175;SDS011;52977;44.816;20.538;2023-07-16T05:04:22;9.02;;;5.03;;
66175;SDS011;52977;44.816;20.538;2023-07-16T05:06:48;7.20;;;4.53;;
66175;SDS011;52977;44.816;20.538;2023-07-16T05:09:14;9.90;;;5.00;;
66175;SDS011;52977;44.816;20.538;2023-07-16T05:11:41;8.90;;;4.82;;
66175;SDS011;52977;44.816;20.538;2023-07-16T05:14:07;8.77;;;5.13;;
66175;SDS011;52977;44.816;20.538;2023-07-16T05:16:33;8.05;;;4.72;;
66175;SDS011;52977;44.816;20.538;2023-07-16T05:18:59;8.77;;;4.88;;
66175;SDS011;52977;44.816;20.538;2023-07-16T05:21:25;8.13;;;5.13;;
66175;SDS011;52977;44.816;20.538;2023-07-16T05:23:51;7.38;;;4.68;;
66175;SDS011;52977;44.816;20.538;2023-07-16T05:26:17;8.15;;;4.95;;
66175;SDS011;52977;44.816;20.538;2023-07-16T05:28:43;9.43;;;4.80;;
66175;SDS011;52977;44.816;20.538;2023-07-16T05:31:09;8.10;;;4.82;;
66175;SDS011;52977;44.816;20.538;2023-07-16T05:33:35;7.70;;;4.50;;
66175;SDS011;52977;44.816;20.538;2023-07-16T05:36:01;7.50;;;4.60;;
66175;SDS011;52977;44.816;20.538;2023-07-16T05:38:27;6.60;;;4.32;;
66175;SDS011;52977;44.816;20.538;2023-07-16T05:40:53;6.65;;;4.03;;
66175;SDS011;52977;44.816;20.538;2023-07-16T05:43:18;7.78;;;4.05;;
66175;SDS011;52977;44.816;20.538;2023-07-16T05:45:44;7.20;;;4.25;;
66175;SDS011;52977;44.816;20.538;2023-07-16T05:48:11;8.38;;;4.13;;
66175;SDS011;52977;44.816;20.538;2023-07-16T05:50:37;8.57;;;4.18;;
66175;SDS011;52977;44.816;20.538;2023-07-16T05:53:03;6.35;;;4.05;;
66175;SDS011;52977;44.816;20.538;2023-07-16T05:55:29;6.93;;;4.20;;
66175;SDS011;52977;44.816;20.538;2023-07-16T05:57:55;7.50;;;3.80;;
66175;SDS011;52977;44.816;20.538;2023-07-16T06:00:21;7.28;;;4.60;;
66175;SDS011;52977;44.816;20.538;2023-07-16T06:02:48;9.02;;;5.25;;
66175;SDS011;52977;44.816;20.538;2023-07-16T06:05:14;8.63;;;4.85;;
66175;SDS011;52977;44.816;20.538;2023-07-16T06:07:40;8.68;;;5.20;;
66175;SDS011;52977;44.816;20.538;2023-07-16T06:10:06;7.20;;;4.93;;
66175;SDS011;52977;44.816;20.538;2023-07-16T06:12:33;7.50;;;4.53;;
66175;SDS011;52977;44.816;20.538;2023-07-16T06:14:59;8.50;;;5.10;;
66175;SDS011;52977;44.816;20.538;2023-07-16T06:17:25;10.68;;;4.90;;
66175;SDS011;52977;44.816;20.538;2023-07-16T06:19:51;8.40;;;4.43;;
66175;SDS011;52977;44.816;20.538;2023-07-16T06:22:18;8.65;;;5.47;;
66175;SDS011;52977;44.816;20.538;2023-07-16T06:24:46;9.13;;;4.40;;
66175;SDS011;52977;44.816;20.538;2023-07-16T06:27:13;6.53;;;4.28;;
66175;SDS011;52977;44.816;20.538;2023-07-16T06:29:39;6.88;;;4.20;;
66175;SDS011;52977;44.816;20.538;2023-07-16T06:32:05;6.18;;;4.25;;
66175;SDS011;52977;44.816;20.538;2023-07-16T06:34:31;6.57;;;4.40;;
66175;SDS011;52977;44.816;20.538;2023-07-16T06:36:57;7.80;;;4.18;;
66175;SDS011;52977;44.816;20.538;2023-07-16T06:39:24;7.45;;;4.20;;
66175;SDS011;52977;44.816;20.538;2023-07-16T06:41:50;6.60;;;4.15;;
66175;SDS011;52977;44.816;20.538;2023-07-16T06:44:16;7.07;;;4.40;;
66175;SDS011;52977;44.816;20.538;2023-07-16T06:46:42;6.40;;;3.72;;
66175;SDS011;52977;44.816;20.538;2023-07-16T06:49:08;5.15;;;3.30;;
66175;SDS011;52977;44.816;20.538;2023-07-16T06:51:34;7.53;;;4.00;;
66175;SDS011;52977;44.816;20.538;2023-07-16T06:54:00;5.47;;;3.42;;
66175;SDS011;52977;44.816;20.538;2023-07-16T06:56:26;5.68;;;3.50;;
66175;SDS011;52977;44.816;20.538;2023-07-16T06:58:52;5.70;;;3.83;;
66175;SDS011;52977;44.816;20.538;2023-07-16T07:01:17;6.70;;;3.67;;
66175;SDS011;52977;44.816;20.538;2023-07-16T07:03:43;6.55;;;3.55;;
66175;SDS011;52977;44.816;20.538;2023-07-16T07:06:10;6.03;;;4.00;;
66175;SDS011;52977;44.816;20.538;2023-07-16T07:08:36;6.03;;;3.90;;
66175;SDS011;52977;44.816;20.538;2023-07-16T07:11:03;5.40;;;3.60;;
66175;SDS011;52977;44.816;20.538;2023-07-16T07:13:30;6.15;;;3.70;;
66175;SDS011;52977;44.816;20.538;2023-07-16T07:15:56;6.57;;;3.80;;
66175;SDS011;52977;44.816;20.538;2023-07-16T07:18:22;5.43;;;3.47;;
66175;SDS011;52977;44.816;20.538;2023-07-16T07:20:48;7.55;;;4.18;;
66175;SDS011;52977;44.816;20.538;2023-07-16T07:23:15;7.65;;;4.32;;
66175;SDS011;52977;44.816;20.538;2023-07-16T07:25:41;7.15;;;4.20;;
66175;SDS011;52977;44.816;20.538;2023-07-16T07:28:08;7.90;;;4.25;;
66175;SDS011;52977;44.816;20.538;2023-07-16T07:30:34;7.18;;;4.10;;
66175;SDS011;52977;44.816;20.538;2023-07-16T07:33:00;6.68;;;4.00;;
66175;SDS011;52977;44.816;20.538;2023-07-16T07:35:26;5.45;;;3.20;;
66175;SDS011;52977;44.816;20.538;2023-07-16T07:37:52;5.82;;;3.40;;
66175;SDS011;52977;44.816;20.538;2023-07-16T07:40:18;6.22;;;3.58;;
66175;SDS011;52977;44.816;20.538;2023-07-16T07:42:45;5.80;;;3.63;;
66175;SDS011;52977;44.816;20.538;2023-07-16T07:45:11;7.00;;;4.00;;
66175;SDS011;52977;44.816;20.538;2023-07-16T07:47:37;5.53;;;3.42;;
66175;SDS011;52977;44.816;20.538;2023-07-16T07:50:03;5.78;;;3.55;;
66175;SDS011;52977;44.816;20.538;2023-07-16T07:52:30;6.03;;;3.58;;
66175;SDS011;52977;44.816;20.538;2023-07-16T07:54:56;6.40;;;3.80;;
66175;SDS011;52977;44.816;20.538;2023-07-16T07:57:22;6.68;;;4.25;;
66175;SDS011;52977;44.816;20.538;2023-07-16T07:59:48;7.85;;;4.20;;
66175;SDS011;52977;44.816;20.538;2023-07-16T08:02:16;7.80;;;4.93;;
66175;SDS011;52977;44.816;20.538;2023-07-16T08:04:44;7.15;;;4.75;;
66175;SDS011;52977;44.816;20.538;2023-07-16T08:07:11;8.00;;;4.53;;
66175;SDS011;52977;44.816;20.538;2023-07-16T08:09:37;9.25;;;4.78;;
66175;SDS011;52977;44.816;20.538;2023-07-16T08:12:03;8.07;;;5.20;;
66175;SDS011;52977;44.816;20.538;2023-07-16T08:14:30;11.13;;;5.47;;
66175;SDS011;52977;44.816;20.538;2023-07-16T08:16:56;7.47;;;4.55;;
66175;SDS011;52977;44.816;20.538;2023-07-16T08:19:22;7.88;;;5.47;;
66175;SDS011;52977;44.816;20.538;2023-07-16T08:21:48;7.47;;;4.85;;
66175;SDS011;52977;44.816;20.538;2023-07-16T08:24:14;9.98;;;5.20;;
66175;SDS011;52977;44.816;20.538;2023-07-16T08:26:41;7.40;;;4.70;;
66175;SDS011;52977;44.816;20.538;2023-07-16T08:29:07;9.95;;;4.50;;
66175;SDS011;52977;44.816;20.538;2023-07-16T08:31:33;8.68;;;5.20;;
66175;SDS011;52977;44.816;20.538;2023-07-16T08:33:59;7.93;;;4.40;;
66175;SDS011;52977;44.816;20.538;2023-07-16T08:36:25;8.82;;;5.30;;
66175;SDS011;52977;44.816;20.538;2023-07-16T08:38:51;7.60;;;5.13;;
66175;SDS011;52977;44.816;20.538;2023-07-16T08:41:17;8.98;;;4.68;;
66175;SDS011;52977;44.816;20.538;2023-07-16T08:43:44;7.63;;;4.78;;
66175;SDS011;52977;44.816;20.538;2023-07-16T08:46:12;6.60;;;4.32;;
66175;SDS011;52977;44.816;20.538;2023-07-16T08:48:38;6.85;;;4.35;;
66175;SDS011;52977;44.816;20.538;2023-07-16T08:51:03;6.35;;;4.20;;
66175;SDS011;52977;44.816;20.538;2023-07-16T08:53:32;8.32;;;4.55;;
66175;SDS011;52977;44.816;20.538;2023-07-16T08:55:58;7.47;;;4.53;;
66175;SDS011;52977;44.816;20.538;2023-07-16T08:58:24;7.68;;;4.78;;
66175;SDS011;52977;44.816;20.538;2023-07-16T09:00:49;7.28;;;4.85;;
66175;SDS011;52977;44.816;20.538;2023-07-16T09:03:17;7.65;;;5.03;;
66175;SDS011;52977;44.816;20.538;2023-07-16T09:05:46;7.97;;;5.22;;
66175;SDS011;52977;44.816;20.538;2023-07-16T09:10:42;10.38;;;5.35;;
66175;SDS011;52977;44.816;20.538;2023-07-16T09:13:09;8.40;;;5.47;;
66175;SDS011;52977;44.816;20.538;2023-07-16T09:15:36;7.15;;;4.97;;
66175;SDS011;52977;44.816;20.538;2023-07-16T09:18:03;10.15;;;5.85;;
66175;SDS011;52977;44.816;20.538;2023-07-16T09:20:29;16.45;;;9.80;;
66175;SDS011;52977;44.816;20.538;2023-07-16T09:22:59;38.33;;;23.65;;
66175;SDS011;52977;44.816;20.538;2023-07-16T09:25:26;41.90;;;27.35;;
66175;SDS011;52977;44.816;20.538;2023-07-16T09:27:57;44.80;;;28.23;;
66175;SDS011;52977;44.816;20.538;2023-07-16T09:30:30;50.13;;;31.83;;
66175;SDS011;52977;44.816;20.538;2023-07-16T09:33:08;49.78;;;32.30;;
66175;SDS011;52977;44.816;20.538;2023-07-16T09:35:36;40.45;;;25.90;;
66175;SDS011;52977;44.816;20.538;2023-07-16T09:38:02;31.55;;;20.80;;
66175;SDS011;52977;44.816;20.538;2023-07-16T09:40:29;29.35;;;18.33;;
66175;SDS011;52977;44.816;20.538;2023-07-16T09:42:56;23.40;;;15.40;;
66175;SDS011;52977;44.816;20.538;2023-07-16T09:45:23;19.13;;;13.10;;
66175;SDS011;52977;44.816;20.538;2023-07-16T09:47:49;18.00;;;11.70;;
66175;SDS011;52977;44.816;20.538;2023-07-16T09:50:15;15.63;;;10.43;;
66175;SDS011;52977;44.816;20.538;2023-07-16T09:52:41;12.88;;;9.27;;
66175;SDS011;52977;44.816;20.538;2023-07-16T09:55:08;11.55;;;7.93;;
66175;SDS011;52977;44.816;20.538;2023-07-16T09:57:35;12.25;;;7.40;;
66175;SDS011;52977;44.816;20.538;2023-07-16T10:00:06;11.05;;;7.47;;
66175;SDS011;52977;44.816;20.538;2023-07-16T10:02:41;9.68;;;6.53;;
66175;SDS011;52977;44.816;20.538;2023-07-16T10:05:11;10.75;;;6.75;;
66175;SDS011;52977;44.816;20.538;2023-07-16T10:07:41;11.35;;;6.60;;
66175;SDS011;52977;44.816;20.538;2023-07-16T10:10:07;23.92;;;16.00;;
66175;SDS011;52977;44.816;20.538;2023-07-16T10:12:36;75.30;;;44.80;;
66175;SDS011;52977;44.816;20.538;2023-07-16T10:15:03;69.43;;;42.65;;
66175;SDS011;52977;44.816;20.538;2023-07-16T10:17:30;57.25;;;35.28;;
66175;SDS011;52977;44.816;20.538;2023-07-16T10:20:07;44.65;;;29.15;;
66175;SDS011;52977;44.816;20.538;2023-07-16T10:22:37;33.13;;;21.08;;
66175;SDS011;52977;44.816;20.538;2023-07-16T10:25:10;27.05;;;15.20;;
66175;SDS011;52977;44.816;20.538;2023-07-16T10:27:36;21.50;;;12.93;;
66175;SDS011;52977;44.816;20.538;2023-07-16T10:30:21;17.30;;;10.20;;
66175;SDS011;52977;44.816;20.538;2023-07-16T10:32:50;13.82;;;8.82;;
66175;SDS011;52977;44.816;20.538;2023-07-16T10:35:17;11.60;;;8.02;;
66175;SDS011;52977;44.816;20.538;2023-07-16T10:37:43;10.57;;;6.97;;
66175;SDS011;52977;44.816;20.538;2023-07-16T10:40:13;11.00;;;6.95;;
66175;SDS011;52977;44.816;20.538;2023-07-16T10:42:41;9.93;;;6.45;;
66175;SDS011;52977;44.816;20.538;2023-07-16T10:45:12;10.27;;;6.78;;
66175;SDS011;52977;44.816;20.538;2023-07-16T10:47:50;8.65;;;5.82;;
66175;SDS011;52977;44.816;20.538;2023-07-16T10:52:45;10.07;;;6.20;;
66175;SDS011;52977;44.816;20.538;2023-07-16T10:55:11;17.73;;;11.55;;
66175;SDS011;52977;44.816;20.538;2023-07-16T10:57:37;28.48;;;19.15;;
66175;SDS011;52977;44.816;20.538;2023-07-16T11:00:04;37.47;;;24.23;;
66175;SDS011;52977;44.816;20.538;2023-07-16T11:02:30;30.92;;;21.65;;
66175;SDS011;52977;44.816;20.538;2023-07-16T11:04:56;27.13;;;18.58;;
66175;SDS011;52977;44.816;20.538;2023-07-16T11:07:23;22.10;;;14.55;;
66175;SDS011;52977;44.816;20.538;2023-07-16T11:12:16;17.08;;;10.63;;
66175;SDS011;52977;44.816;20.538;2023-07-16T11:14:48;13.60;;;9.13;;
66175;SDS011;52977;44.816;20.538;2023-07-16T11:17:17;12.65;;;8.32;;
66175;SDS011;52977;44.816;20.538;2023-07-16T11:19:47;12.45;;;7.43;;
66175;SDS011;52977;44.816;20.538;2023-07-16T11:22:14;11.23;;;7.10;;
66175;SDS011;52977;44.816;20.538;2023-07-16T11:24:42;12.82;;;7.35;;
66175;SDS011;52977;44.816;20.538;2023-07-16T11:27:15;10.23;;;6.90;;
66175;SDS011;52977;44.816;20.538;2023-07-16T11:29:47;12.85;;;7.45;;
66175;SDS011;52977;44.816;20.538;2023-07-16T11:35:15;11.10;;;6.53;;
66175;SDS011;52977;44.816;20.538;2023-07-16T11:37:44;9.93;;;5.82;;
66175;SDS011;52977;44.816;20.538;2023-07-16T11:40:11;12.15;;;7.47;;
66175;SDS011;52977;44.816;20.538;2023-07-16T11:42:41;28.23;;;17.70;;
66175;SDS011;52977;44.816;20.538;2023-07-16T11:45:15;35.17;;;21.00;;
66175;SDS011;52977;44.816;20.538;2023-07-16T11:47:43;29.35;;;19.35;;
66175;SDS011;52977;44.816;20.538;2023-07-16T11:50:10;23.60;;;15.52;;
66175;SDS011;52977;44.816;20.538;2023-07-16T11:52:38;20.98;;;13.30;;
66175;SDS011;52977;44.816;20.538;2023-07-16T11:55:05;17.30;;;10.55;;
66175;SDS011;52977;44.816;20.538;2023-07-16T11:57:31;14.10;;;9.50;;
66175;SDS011;52977;44.816;20.538;2023-07-16T11:59:57;13.60;;;8.57;;
66175;SDS011;52977;44.816;20.538;2023-07-16T12:02:25;14.20;;;8.00;;
66175;SDS011;52977;44.816;20.538;2023-07-16T12:04:51;10.45;;;7.07;;
66175;SDS011;52977;44.816;20.538;2023-07-16T12:07:36;11.55;;;6.93;;
66175;SDS011;52977;44.816;20.538;2023-07-16T12:10:04;9.55;;;6.97;;
66175;SDS011;52977;44.816;20.538;2023-07-16T12:12:32;18.50;;;12.70;;
66175;SDS011;52977;44.816;20.538;2023-07-16T12:14:59;21.08;;;13.52;;
66175;SDS011;52977;44.816;20.538;2023-07-16T12:17:25;18.92;;;12.25;;
66175;SDS011;52977;44.816;20.538;2023-07-16T12:19:52;15.25;;;9.60;;
66175;SDS011;52977;44.816;20.538;2023-07-16T12:22:18;12.95;;;7.97;;
66175;SDS011;52977;44.816;20.538;2023-07-16T12:24:47;11.25;;;6.85;;
66175;SDS011;52977;44.816;20.538;2023-07-16T12:27:14;8.93;;;6.97;;
66175;SDS011;52977;44.816;20.538;2023-07-16T12:29:41;11.57;;;6.53;;
66175;SDS011;52977;44.816;20.538;2023-07-16T12:32:08;9.55;;;6.60;;
66175;SDS011;52977;44.816;20.538;2023-07-16T12:34:34;11.15;;;7.43;;
66175;SDS011;52977;44.816;20.538;2023-07-16T12:37:00;10.65;;;7.18;;
66175;SDS011;52977;44.816;20.538;2023-07-16T12:39:26;12.90;;;7.57;;
66175;SDS011;52977;44.816;20.538;2023-07-16T12:41:52;12.50;;;7.18;;
66175;SDS011;52977;44.816;20.538;2023-07-16T12:44:18;11.30;;;7.20;;
66175;SDS011;52977;44.816;20.538;2023-07-16T12:46:45;9.77;;;6.85;;
66175;SDS011;52977;44.816;20.538;2023-07-16T12:49:11;10.20;;;7.07;;
66175;SDS011;52977;44.816;20.538;2023-07-16T12:51:37;10.50;;;6.82;;
66175;SDS011;52977;44.816;20.538;2023-07-16T12:54:06;9.65;;;6.45;;
66175;SDS011;52977;44.816;20.538;2023-07-16T12:56:32;9.50;;;6.13;;
66175;SDS011;52977;44.816;20.538;2023-07-16T12:58:59;11.00;;;7.03;;
66175;SDS011;52977;44.816;20.538;2023-07-16T13:01:25;9.35;;;6.35;;
66175;SDS011;52977;44.816;20.538;2023-07-16T13:03:51;10.18;;;7.20;;
66175;SDS011;52977;44.816;20.538;2023-07-16T13:06:17;23.52;;;14.82;;
66175;SDS011;52977;44.816;20.538;2023-07-16T13:08:43;24.60;;;15.82;;
66175;SDS011;52977;44.816;20.538;2023-07-16T13:11:10;23.13;;;15.70;;
66175;SDS011;52977;44.816;20.538;2023-07-16T13:13:37;27.25;;;19.45;;
66175;SDS011;52977;44.816;20.538;2023-07-16T13:16:03;32.90;;;20.27;;
66175;SDS011;52977;44.816;20.538;2023-07-16T13:18:29;26.30;;;16.73;;
66175;SDS011;52977;44.816;20.538;2023-07-16T13:20:55;21.27;;;13.82;;
66175;SDS011;52977;44.816;20.538;2023-07-16T13:23:22;16.45;;;11.35;;
66175;SDS011;52977;44.816;20.538;2023-07-16T13:25:48;15.25;;;10.10;;
66175;SDS011;52977;44.816;20.538;2023-07-16T13:28:17;16.58;;;9.25;;
66175;SDS011;52977;44.816;20.538;2023-07-16T13:30:43;11.75;;;8.18;;
66175;SDS011;52977;44.816;20.538;2023-07-16T13:33:09;11.65;;;7.72;;
66175;SDS011;52977;44.816;20.538;2023-07-16T13:35:35;10.65;;;6.60;;
66175;SDS011;52977;44.816;20.538;2023-07-16T13:38:02;8.88;;;6.55;;
66175;SDS011;52977;44.816;20.538;2023-07-16T13:40:28;9.13;;;6.25;;
66175;SDS011;52977;44.816;20.538;2023-07-16T13:42:54;9.82;;;6.05;;
66175;SDS011;52977;44.816;20.538;2023-07-16T13:45:21;9.65;;;6.38;;
66175;SDS011;52977;44.816;20.538;2023-07-16T13:47:48;10.00;;;6.53;;
66175;SDS011;52977;44.816;20.538;2023-07-16T13:50:17;9.02;;;6.70;;
66175;SDS011;52977;44.816;20.538;2023-07-16T13:52:43;10.30;;;6.40;;
66175;SDS011;52977;44.816;20.538;2023-07-16T13:55:09;14.40;;;10.30;;
66175;SDS011;52977;44.816;20.538;2023-07-16T13:57:36;20.10;;;12.13;;
66175;SDS011;52977;44.816;20.538;2023-07-16T14:00:03;18.42;;;13.82;;
66175;SDS011;52977;44.816;20.538;2023-07-16T14:02:30;18.52;;;13.63;;
66175;SDS011;52977;44.816;20.538;2023-07-16T14:04:57;22.05;;;16.23;;
66175;SDS011;52977;44.816;20.538;2023-07-16T14:07:23;31.20;;;21.33;;
66175;SDS011;52977;44.816;20.538;2023-07-16T14:09:49;30.30;;;20.77;;
66175;SDS011;52977;44.816;20.538;2023-07-16T14:12:15;24.85;;;17.92;;
66175;SDS011;52977;44.816;20.538;2023-07-16T14:14:41;19.77;;;14.95;;
66175;SDS011;52977;44.816;20.538;2023-07-16T14:17:07;17.77;;;12.57;;
66175;SDS011;52977;44.816;20.538;2023-07-16T14:19:35;17.90;;;11.00;;
66175;SDS011;52977;44.816;20.538;2023-07-16T14:22:02;14.98;;;10.38;;
66175;SDS011;52977;44.816;20.538;2023-07-16T14:24:28;14.07;;;10.40;;
66175;SDS011;52977;44.816;20.538;2023-07-16T14:26:57;12.65;;;9.50;;
66175;SDS011;52977;44.816;20.538;2023-07-16T14:29:26;14.45;;;9.93;;
66175;SDS011;52977;44.816;20.538;2023-07-16T14:31:53;13.57;;;10.52;;
66175;SDS011;52977;44.816;20.538;2023-07-16T14:34:19;13.65;;;10.00;;
66175;SDS011;52977;44.816;20.538;2023-07-16T14:36:47;12.77;;;9.48;;
66175;SDS011;52977;44.816;20.538;2023-07-16T14:39:14;11.52;;;8.65;;
66175;SDS011;52977;44.816;20.538;2023-07-16T14:41:41;9.77;;;8.23;;
66175;SDS011;52977;44.816;20.538;2023-07-16T14:44:07;13.02;;;9.13;;
66175;SDS011;52977;44.816;20.538;2023-07-16T14:46:33;14.75;;;10.70;;
66175;SDS011;52977;44.816;20.538;2023-07-16T14:49:00;20.27;;;14.35;;